createdAt,value
2018-12-23T00:02:23.412Z,100.00
2018-12-23T00:04:53.486Z,100.00
2018-12-23T00:07:23.759Z,100.00
2018-12-23T00:09:53.508Z,100.00
2018-12-23T00:12:39.090Z,100.00
2018-12-23T00:15:20.983Z,100.00
2018-12-23T00:17:54.160Z,100.00
2018-12-23T00:20:36.408Z,100.00
2018-12-23T00:26:13.150Z,100.00
2018-12-23T00:28:42.876Z,100.00
2018-12-23T00:31:26.477Z,100.00
2018-12-23T00:36:55.111Z,100.00
2018-12-23T00:39:41.435Z,100.00
2018-12-23T00:42:11.173Z,100.00
2018-12-23T00:44:47.071Z,100.00
2018-12-23T00:47:20.371Z,100.00
2018-12-23T00:49:56.414Z,100.00
2018-12-23T00:52:32.535Z,100.00
2018-12-23T00:55:08.407Z,100.00
2018-12-23T00:57:38.626Z,100.00
2018-12-23T01:00:14.087Z,100.00
2018-12-23T01:02:59.838Z,100.00
2018-12-23T01:05:39.283Z,100.00
2018-12-23T01:08:21.736Z,100.00
2018-12-23T01:10:57.292Z,100.00
2018-12-23T01:13:39.383Z,100.00
2018-12-23T01:16:14.818Z,100.00
2018-12-23T01:18:50.003Z,100.00
2018-12-23T01:21:23.914Z,100.00
2018-12-23T01:23:53.871Z,100.00
2018-12-23T01:26:33.104Z,100.00
2018-12-23T01:29:19.136Z,100.00
2018-12-23T01:31:48.639Z,100.00
2018-12-23T01:34:18.953Z,100.00
2018-12-23T01:36:48.813Z,100.00
2018-12-23T01:39:24.007Z,100.00
2018-12-23T01:41:56.707Z,100.00
2018-12-23T01:44:48.755Z,100.00
2018-12-23T01:47:32.047Z,100.00
2018-12-23T01:50:01.396Z,100.00
2018-12-23T01:52:32.689Z,100.00
2018-12-23T01:58:07.767Z,100.00
2018-12-23T02:00:38.190Z,100.00
2018-12-23T02:03:07.891Z,100.00
2018-12-23T02:05:45.882Z,100.00
2018-12-23T02:08:09.775Z,100.00
2018-12-23T02:10:42.357Z,100.00
2018-12-23T02:16:36.692Z,100.00
2018-12-23T02:19:10.311Z,100.00
2018-12-23T02:21:40.076Z,100.00
2018-12-23T02:24:10.435Z,100.00
2018-12-23T02:26:40.178Z,100.00
2018-12-23T02:29:09.718Z,100.00
2018-12-23T02:31:39.650Z,100.00
2018-12-23T02:34:09.794Z,100.00
2018-12-23T02:36:39.560Z,100.00
2018-12-23T02:39:10.553Z,100.00
2018-12-23T02:41:48.040Z,100.00
2018-12-23T02:44:23.315Z,100.00
2018-12-23T02:46:58.745Z,100.00
2018-12-23T02:49:28.142Z,100.00
2018-12-23T02:55:11.365Z,100.00
2018-12-23T02:57:50.740Z,100.00
2018-12-23T03:00:21.472Z,100.00
2018-12-23T03:02:58.038Z,100.00
2018-12-23T03:11:26.978Z,100.00
2018-12-23T03:14:02.813Z,100.00
2018-12-23T03:16:37.837Z,100.00
2018-12-23T03:25:02.692Z,100.00
2018-12-23T03:27:39.161Z,100.00
2018-12-23T03:30:20.274Z,100.00
2018-12-23T03:36:16.167Z,100.00
2018-12-23T03:38:51.265Z,100.00
2018-12-23T03:41:32.794Z,100.00
2018-12-23T03:47:18.075Z,100.00
2018-12-23T03:49:49.369Z,100.00
2018-12-23T04:36:06.722Z,100.00
2018-12-23T04:38:37.821Z,100.00
2018-12-23T04:41:10.705Z,100.00
2018-12-23T04:43:43.494Z,100.00
2018-12-23T04:46:35.684Z,100.00
2018-12-23T04:49:15.524Z,100.00
2018-12-23T04:51:48.319Z,100.00
2018-12-23T04:54:19.354Z,100.00
2018-12-23T04:56:52.305Z,100.00
2018-12-23T04:59:23.456Z,100.00
2018-12-23T05:11:20.867Z,100.00
2018-12-23T05:13:53.636Z,100.00
2018-12-23T05:35:21.848Z,100.00
2018-12-23T05:41:06.966Z,100.00
2018-12-23T05:44:01.425Z,100.00
2018-12-23T06:14:31.348Z,100.00
2018-12-23T06:17:06.728Z,100.00
2018-12-23T06:19:49.950Z,100.00
2018-12-23T06:25:37.187Z,100.00
2018-12-23T07:02:56.803Z,100.00
2018-12-23T07:05:31.783Z,100.00
2018-12-23T07:08:01.152Z,100.00
2018-12-23T07:10:30.861Z,100.00
2018-12-23T07:13:00.320Z,100.00
2018-12-23T07:15:29.688Z,100.00
2018-12-23T07:17:59.481Z,100.00
2018-12-23T07:20:28.990Z,100.00
2018-12-23T07:23:05.343Z,100.00
2018-12-23T07:25:36.143Z,100.00
2018-12-23T07:28:18.418Z,100.00
2018-12-23T07:30:53.162Z,100.00
2018-12-23T07:33:28.874Z,100.00
2018-12-23T07:36:01.643Z,100.00
2018-12-23T07:38:43.307Z,100.00
2018-12-23T07:41:13.031Z,100.00
2018-12-23T07:43:42.803Z,100.00
2018-12-23T07:46:13.152Z,100.00
2018-12-23T07:48:42.899Z,100.00
2018-12-23T07:51:12.247Z,100.00
2018-12-23T07:53:42.001Z,100.00
2018-12-23T07:56:11.371Z,100.00
2018-12-23T07:58:41.083Z,100.00
2018-12-23T08:01:10.586Z,100.00
2018-12-23T08:12:48.302Z,100.00
2018-12-23T08:15:46.163Z,100.00
2018-12-23T08:18:15.935Z,100.00
2018-12-23T08:21:04.361Z,100.00
2018-12-23T08:23:37.113Z,100.00
2018-12-23T08:26:24.146Z,100.00
2018-12-23T09:00:16.798Z,100.00
2018-12-23T09:06:00.585Z,99.80
2018-12-23T09:20:47.977Z,94.46
2018-12-23T09:23:29.541Z,93.71
2018-12-23T09:45:44.402Z,92.65
2018-12-23T09:48:42.813Z,92.42
2018-12-23T09:51:12.637Z,92.42
2018-12-23T09:53:42.129Z,92.50
2018-12-23T09:56:11.606Z,92.46
2018-12-23T09:58:41.432Z,92.32
2018-12-23T10:01:11.321Z,92.33
2018-12-23T10:03:41.132Z,91.54
2018-12-23T10:06:10.641Z,90.65
2018-12-23T10:08:40.505Z,90.01
2018-12-23T10:11:10.001Z,89.21
2018-12-23T10:13:39.737Z,88.91
2018-12-23T10:16:15.022Z,89.09
2018-12-23T10:18:47.667Z,89.02
2018-12-23T10:21:20.890Z,89.50
2018-12-23T10:23:50.377Z,89.18
2018-12-23T10:30:30.514Z,89.60
2018-12-23T10:33:01.985Z,88.83
2018-12-23T10:35:33.370Z,87.14
2018-12-23T10:38:04.912Z,84.62
2018-12-23T10:40:35.592Z,85.03
2018-12-23T10:43:07.106Z,84.62
2018-12-23T10:45:38.512Z,84.62
2018-12-23T10:48:10.033Z,84.09
2018-12-23T10:50:41.541Z,83.57
2018-12-23T10:53:13.090Z,83.93
2018-12-23T10:55:44.439Z,84.07
2018-12-23T10:58:15.080Z,84.29
2018-12-23T11:00:46.517Z,84.03
2018-12-23T11:03:17.940Z,83.92
2018-12-23T11:05:49.298Z,84.09
2018-12-23T11:08:27.122Z,84.43
2018-12-23T11:10:58.847Z,84.31
2018-12-23T11:13:30.465Z,84.17
2018-12-23T11:16:03.933Z,83.54
2018-12-23T11:18:34.597Z,83.27
2018-12-23T11:21:06.081Z,82.89
2018-12-23T11:23:36.739Z,82.77
2018-12-23T11:26:08.366Z,82.16
2018-12-23T11:28:40.157Z,82.31
2018-12-23T11:31:11.629Z,81.71
2018-12-23T11:33:43.628Z,80.97
2018-12-23T11:36:16.114Z,80.21
2018-12-23T11:38:46.952Z,79.80
2018-12-23T11:41:21.402Z,81.28
2018-12-23T11:43:55.102Z,80.55
2018-12-23T11:46:27.570Z,80.23
2018-12-23T11:49:03.587Z,80.42
2018-12-23T11:51:42.078Z,80.67
2018-12-23T11:54:12.826Z,79.53
2018-12-23T11:56:44.217Z,79.58
2018-12-23T11:59:15.573Z,79.75
2018-12-23T12:01:49.746Z,79.58
2018-12-23T12:04:20.392Z,78.50
2018-12-23T12:06:53.246Z,78.85
2018-12-23T12:09:23.876Z,78.51
2018-12-23T12:11:55.356Z,77.91
2018-12-23T12:14:27.639Z,78.72
2018-12-23T12:16:59.283Z,79.02
2018-12-23T12:19:29.969Z,78.97
2018-12-23T12:22:00.847Z,78.79
2018-12-23T12:24:37.317Z,78.63
2018-12-23T12:27:09.095Z,78.06
2018-12-23T12:29:45.104Z,78.11
2018-12-23T12:32:38.421Z,78.04
2018-12-23T12:35:12.750Z,77.48
2018-12-23T12:37:49.970Z,77.99
2018-12-23T12:40:26.848Z,77.35
2018-12-23T12:43:00.014Z,77.47
2018-12-23T12:45:36.249Z,78.25
2018-12-23T12:48:09.924Z,78.01
2018-12-23T12:50:40.934Z,78.42
2018-12-23T12:53:19.076Z,78.56
2018-12-23T12:55:50.467Z,79.14
2018-12-23T12:58:21.918Z,79.24
2018-12-23T13:01:00.513Z,78.76
2018-12-23T13:03:34.272Z,79.07
2018-12-23T13:06:23.137Z,80.00
2018-12-23T13:09:00.501Z,80.05
2018-12-23T13:11:37.892Z,79.78
2018-12-23T13:14:13.045Z,80.11
2018-12-23T13:16:46.166Z,80.33
2018-12-23T13:19:19.531Z,80.64
2018-12-23T13:21:50.960Z,80.88
2018-12-23T13:24:21.709Z,81.41
2018-12-23T13:26:52.382Z,81.87
2018-12-23T13:29:23.887Z,82.39
2018-12-23T13:31:54.616Z,82.82
2018-12-23T13:34:26.752Z,82.61
2018-12-23T13:36:58.343Z,82.74
2018-12-23T13:39:30.956Z,82.98
2018-12-23T13:43:16.019Z,82.92
2018-12-23T13:46:15.206Z,82.75
2018-12-23T13:49:24.256Z,83.28
2018-12-23T13:52:56.011Z,83.52
2018-12-23T13:56:25.363Z,83.56
2018-12-23T13:59:42.689Z,83.65
2018-12-23T14:02:46.816Z,83.48
2018-12-23T14:06:03.523Z,83.54
2018-12-23T14:10:00.308Z,83.93
2018-12-23T14:12:33.043Z,83.93
2018-12-23T14:15:05.426Z,84.01
2018-12-23T14:17:36.132Z,83.38
2018-12-23T14:20:08.379Z,82.97
2018-12-23T14:22:43.927Z,83.19
2018-12-23T14:25:15.327Z,83.27
2018-12-23T14:27:46.689Z,83.80
2018-12-23T14:30:17.313Z,83.73
2018-12-23T14:32:47.955Z,83.75
2018-12-23T14:35:19.391Z,84.08
2018-12-23T14:37:50.975Z,83.78
2018-12-23T14:40:21.551Z,84.42
2018-12-23T14:42:52.205Z,84.33
2018-12-23T14:45:23.578Z,84.52
2018-12-23T14:47:54.923Z,85.08
2018-12-23T14:50:26.247Z,85.56
2018-12-23T14:52:57.603Z,85.21
2018-12-23T14:55:28.954Z,85.07
2018-12-23T14:57:59.527Z,86.49
2018-12-23T15:00:30.966Z,86.99
2018-12-23T15:03:02.307Z,87.33
2018-12-23T15:05:33.709Z,86.91
2018-12-23T15:08:04.232Z,87.55
2018-12-23T15:10:34.919Z,87.81
2018-12-23T15:13:06.580Z,88.30
2018-12-23T15:15:37.112Z,88.20
2018-12-23T15:18:07.706Z,88.05
2018-12-23T15:20:39.047Z,88.47
2018-12-23T15:23:11.061Z,87.98
2018-12-23T15:25:42.579Z,87.63
2018-12-23T15:28:13.935Z,87.45
2018-12-23T15:30:44.516Z,86.27
2018-12-23T15:33:15.916Z,86.20
2018-12-23T15:35:47.655Z,86.33
2018-12-23T15:38:18.990Z,86.08
2018-12-23T15:40:49.578Z,86.41
2018-12-23T15:43:20.975Z,86.30
2018-12-23T15:45:52.438Z,86.01
2018-12-23T15:48:23.883Z,84.88
2018-12-23T15:50:55.299Z,84.11
2018-12-23T15:53:25.931Z,83.26
2018-12-23T15:55:57.264Z,82.94
2018-12-23T15:58:27.862Z,82.46
2018-12-23T16:00:59.289Z,83.22
2018-12-23T16:03:30.773Z,83.81
2018-12-23T16:06:02.241Z,84.17
2018-12-23T16:08:36.721Z,84.53
2018-12-23T16:11:08.083Z,83.69
2018-12-23T16:13:39.570Z,84.45
2018-12-23T16:16:10.224Z,85.06
2018-12-23T16:18:41.735Z,86.21
2018-12-23T16:21:13.216Z,86.77
2018-12-23T16:23:44.714Z,87.61
2018-12-23T16:26:16.220Z,88.11
2018-12-23T16:28:47.680Z,87.66
2018-12-23T16:31:19.088Z,88.36
2018-12-23T16:33:49.740Z,88.94
2018-12-23T16:36:21.143Z,89.22
2018-12-23T16:38:52.479Z,89.35
2018-12-23T16:41:23.672Z,89.76
2018-12-23T16:43:55.920Z,90.76
2018-12-23T16:47:24.703Z,91.18
2018-12-23T16:49:55.785Z,91.36
2018-12-23T16:52:26.995Z,91.96
2018-12-23T16:54:58.564Z,91.92
2018-12-23T16:57:30.558Z,92.15
2018-12-23T17:00:01.591Z,92.14
2018-12-23T17:02:32.260Z,92.01
2018-12-23T17:05:03.219Z,91.99
2018-12-23T17:07:34.824Z,91.91
2018-12-23T17:10:08.510Z,92.49
2018-12-23T17:12:38.950Z,92.72
2018-12-23T17:15:10.358Z,92.92
2018-12-23T17:17:41.754Z,93.46
2018-12-23T17:20:15.598Z,93.64
2018-12-23T17:22:46.832Z,93.94
2018-12-23T17:25:17.628Z,95.10
2018-12-23T17:27:49.278Z,95.63
2018-12-23T17:30:21.559Z,96.56
2018-12-23T17:32:53.578Z,96.07
2018-12-23T17:35:25.560Z,96.59
2018-12-23T17:37:57.769Z,96.78
2018-12-23T17:40:29.435Z,96.91
2018-12-23T17:43:02.272Z,97.64
2018-12-23T17:45:33.843Z,98.25
2018-12-23T17:48:05.562Z,98.77
2018-12-23T17:50:37.315Z,98.20
2018-12-23T17:53:08.807Z,98.95
2018-12-23T17:55:40.286Z,99.24
2018-12-23T17:58:11.703Z,99.45
2018-12-23T18:00:43.493Z,99.34
2018-12-23T18:03:15.014Z,98.92
2018-12-23T18:05:46.957Z,98.50
2018-12-23T18:08:18.508Z,98.58
2018-12-23T18:10:49.926Z,98.53
2018-12-23T18:13:21.448Z,98.77
2018-12-23T18:15:52.882Z,98.63
2018-12-23T18:18:24.444Z,98.63
2018-12-23T18:20:55.861Z,98.60
2018-12-23T18:23:27.951Z,97.47
2018-12-23T18:25:59.642Z,97.21
2018-12-23T18:28:30.287Z,97.00
2018-12-23T18:31:01.830Z,97.48
2018-12-23T18:33:33.630Z,97.69
2018-12-23T18:36:05.774Z,97.06
2018-12-23T18:38:36.522Z,97.09
2018-12-23T18:41:07.648Z,97.27
2018-12-23T18:43:39.394Z,97.52
2018-12-23T18:46:12.061Z,97.71
2018-12-23T18:48:43.690Z,97.85
2018-12-23T18:51:16.060Z,98.25
2018-12-23T18:53:47.918Z,98.40
2018-12-23T18:56:23.282Z,98.59
2018-12-23T18:58:55.563Z,98.86
2018-12-23T19:01:27.035Z,98.99
2018-12-23T19:03:58.698Z,99.00
2018-12-23T19:06:31.120Z,99.02
2018-12-23T19:09:31.910Z,98.89
2018-12-23T19:13:14.902Z,98.99
2018-12-23T19:16:40.322Z,99.13
2018-12-23T19:19:55.974Z,99.40
2018-12-23T19:23:13.602Z,99.53
2018-12-23T19:27:14.123Z,99.27
2018-12-23T19:30:41.963Z,99.65
2018-12-23T19:34:05.606Z,99.48
2018-12-23T19:37:40.088Z,99.54
2018-12-23T19:41:37.763Z,99.56
2018-12-23T19:45:11.383Z,99.57
2018-12-23T19:48:42.806Z,99.55
2018-12-23T19:52:22.891Z,99.42
2018-12-23T19:55:52.455Z,99.62
2018-12-23T19:59:29.761Z,99.64
2018-12-23T20:02:41.939Z,99.58
2018-12-23T20:06:05.062Z,99.72
2018-12-23T20:09:40.289Z,100.00
2018-12-23T20:13:05.577Z,99.89
2018-12-23T20:16:30.018Z,99.88
2018-12-23T20:20:14.809Z,100.00
2018-12-23T20:24:09.447Z,100.00
2018-12-23T20:27:53.885Z,100.00
2018-12-23T20:31:11.212Z,100.00
2018-12-23T20:34:36.613Z,100.00
2018-12-23T20:37:48.678Z,100.00
2018-12-23T20:41:13.705Z,100.00
2018-12-23T20:44:56.749Z,100.00
2018-12-23T20:48:16.241Z,100.00
2018-12-23T20:51:44.859Z,100.00
2018-12-23T20:55:29.713Z,100.00
2018-12-23T20:58:45.301Z,100.00
2018-12-23T21:02:03.848Z,100.00
2018-12-23T21:05:36.251Z,100.00
2018-12-23T21:09:09.233Z,100.00
2018-12-23T21:12:46.358Z,100.00
2018-12-23T21:16:32.216Z,100.00
2018-12-23T21:20:00.358Z,100.00
2018-12-23T21:23:40.044Z,100.00
2018-12-23T21:27:32.300Z,100.00
2018-12-23T21:30:47.772Z,100.00
2018-12-23T21:34:58.261Z,100.00
2018-12-23T21:38:35.968Z,100.00
2018-12-23T21:41:53.754Z,100.00
2018-12-23T21:45:18.577Z,100.00
2018-12-23T21:48:56.120Z,100.00
2018-12-23T21:52:18.525Z,100.00
2018-12-23T21:55:49.196Z,100.00
2018-12-23T21:59:00.560Z,100.00
2018-12-23T22:02:31.427Z,100.00
2018-12-23T22:06:05.792Z,100.00
2018-12-23T22:09:30.441Z,100.00
2018-12-23T22:12:59.631Z,100.00
2018-12-23T22:15:31.235Z,100.00
2018-12-23T22:18:02.839Z,100.00
2018-12-23T22:20:34.315Z,100.00
2018-12-23T22:23:05.796Z,100.00
2018-12-23T22:25:37.391Z,100.00
2018-12-23T22:28:08.839Z,100.00
2018-12-23T22:30:40.229Z,100.00
2018-12-23T22:33:11.888Z,100.00
2018-12-23T22:35:43.379Z,100.00
2018-12-23T22:38:14.779Z,100.00
2018-12-23T22:40:53.348Z,99.74
2018-12-23T22:43:24.733Z,98.87
2018-12-23T22:45:56.111Z,98.21
2018-12-23T22:48:27.544Z,98.47
2018-12-23T22:50:58.884Z,98.70
2018-12-23T22:53:30.239Z,98.78
2018-12-23T22:56:01.511Z,96.96
2018-12-23T22:58:32.879Z,95.72
2018-12-23T23:01:04.595Z,96.10
2018-12-23T23:03:36.135Z,95.99
2018-12-23T23:06:07.505Z,95.89
2018-12-23T23:08:38.789Z,96.37
2018-12-23T23:11:10.118Z,96.94
2018-12-23T23:13:41.543Z,96.58
2018-12-23T23:16:12.879Z,96.08
2018-12-23T23:18:44.207Z,96.02
2018-12-23T23:21:15.577Z,96.10
2018-12-23T23:23:46.834Z,96.70
2018-12-23T23:26:18.191Z,97.20
2018-12-23T23:28:49.471Z,97.06
2018-12-23T23:31:20.845Z,97.51
2018-12-23T23:33:52.140Z,97.85
2018-12-23T23:36:23.438Z,98.04
2018-12-23T23:38:54.754Z,98.16
2018-12-23T23:41:26.058Z,98.06
2018-12-23T23:43:57.365Z,98.05
2018-12-23T23:46:28.674Z,98.20
2018-12-23T23:49:00.019Z,98.29
2018-12-23T23:51:31.383Z,97.75
2018-12-23T23:54:02.772Z,98.49
2018-12-23T23:56:34.068Z,98.49
2018-12-23T23:59:05.462Z,98.48
